Time;durP1;ratioP1;P1;durP2;ratioP2;P2;SDS_P1;SDS_P2;PMS_P1;PMS_P2;Temp;Humidity;BMP_temperature;BMP_pressure;BME280_temperature;BME280_humidity;BME280_pressure;Samples;Min_cycle;Max_cycle;Signal;HPM_P1;HPM_P2
2023/05/28 00:01:37;;;;;;;;;;;;;;;21.81;50.67;101743.16;5000640;28;4048;-70
2023/05/28 00:04:03;;;;;;;;;;;;;;;21.80;50.48;101738.00;5000057;28;4145;-70
2023/05/28 00:06:30;;;;;;;;;;;;;;;21.79;50.49;101740.16;5001340;28;4327;-70
2023/05/28 00:08:56;;;;;;;;;;;;;;;21.80;50.62;101735.88;5001534;28;4124;-70
2023/05/28 00:11:23;;;;;;;;;;;;;;;21.80;50.62;101735.13;5004168;28;4094;-69
2023/05/28 00:13:50;;;;;;;;;;;;;;;21.80;50.64;101735.13;5001066;28;5005;-69
2023/05/28 00:16:16;;;;;;;;;;;;;;;21.80;50.22;101732.25;4999718;28;4288;-70
2023/05/28 00:18:42;;;;;;;;;;;;;;;21.81;50.47;101731.59;4998411;28;4158;-68
2023/05/28 00:21:10;;;;;;;;;;;;;;;21.82;50.62;101732.34;5004493;28;4265;-68
2023/05/28 00:23:36;;;;;;;;;;;;;;;21.83;50.34;101728.06;5000297;28;3986;-69
2023/05/28 00:26:03;;;;;;;;;;;;;;;21.81;50.55;101727.97;5003930;28;4255;-69
2023/05/28 00:28:29;;;;;;;;;;;;;;;21.81;50.34;101725.09;5001186;28;4137;-70
2023/05/28 00:30:56;;;;;;;;;;;;;;;21.81;50.41;101722.97;5003893;28;4146;-69
2023/05/28 00:33:22;;;;;;;;;;;;;;;21.79;50.61;101722.84;5004811;28;4200;-69
2023/05/28 00:35:54;;;;;;;;;;;;;;;21.77;50.69;101725.63;5001893;28;4214;-69
2023/05/28 00:38:21;;;;;;;;;;;;;;;21.77;50.78;101713.34;5003816;28;4096;-69
2023/05/28 00:40:48;;;;;;;;;;;;;;;21.78;50.67;101714.81;5006398;28;4174;-69
2023/05/28 00:43:15;;;;;;;;;;;;;;;21.77;50.79;101714.09;5009026;28;4121;-69
2023/05/28 00:45:42;;;;;;;;;;;;;;;21.78;50.90;101720.59;5001463;28;4044;-69
2023/05/28 00:48:08;;;;;;;;;;;;;;;21.78;50.71;101714.81;5011756;28;4420;-69
2023/05/28 00:50:35;;;;;;;;;;;;;;;21.77;50.76;101719.09;5006865;28;4260;-69
2023/05/28 00:53:02;;;;;;;;;;;;;;;21.78;50.51;101714.81;5017832;28;4167;-69
2023/05/28 00:55:28;;;;;;;;;;;;;;;21.78;50.67;101711.94;4997875;28;4071;-68
2023/05/28 00:57:55;;;;;;;;;;;;;;;21.77;50.50;101713.34;4989074;28;4139;-69
2023/05/28 01:00:22;;;;;;;;;;;;;;;21.75;50.80;101708.94;5005751;28;4184;-69
2023/05/28 01:02:49;;;;;;;;;;;;;;;21.73;50.71;101711.72;5015182;28;4194;-69
2023/05/28 01:05:17;;;;;;;;;;;;;;;21.73;50.72;101708.84;5004932;28;4130;-69
2023/05/28 01:07:43;;;;;;;;;;;;;;;21.73;50.75;101711.72;5010393;28;4051;-69
2023/05/28 01:10:10;;;;;;;;;;;;;;;21.74;50.48;101698.81;5007545;28;4047;-69
2023/05/28 01:12:36;;;;;;;;;;;;;;;21.72;50.67;101707.34;5003983;28;4243;-68
2023/05/28 01:15:03;;;;;;;;;;;;;;;21.71;50.68;101705.84;5007089;28;4140;-68
2023/05/28 01:17:29;;;;;;;;;;;;;;;21.72;50.68;101707.34;5010486;28;4193;-68
2023/05/28 01:19:57;;;;;;;;;;;;;;;21.72;50.48;101707.34;4993630;28;4012;-68
2023/05/28 01:22:25;;;;;;;;;;;;;;;21.72;50.51;101700.84;5005829;28;4071;-68
2023/05/28 01:24:51;;;;;;;;;;;;;;;21.70;50.54;101704.34;5002325;28;4107;-68
2023/05/28 01:27:18;;;;;;;;;;;;;;;21.70;50.60;101704.34;5003025;28;4109;-69
2023/05/28 01:29:45;;;;;;;;;;;;;;;21.70;50.63;101710.13;4996872;28;4174;-69
2023/05/28 01:32:11;;;;;;;;;;;;;;;21.69;50.31;101702.09;5002104;28;4228;-69
2023/05/28 01:34:38;;;;;;;;;;;;;;;21.69;50.60;101708.63;5006606;28;4112;-69
2023/05/28 01:37:07;;;;;;;;;;;;;;;21.68;50.72;101712.88;5000711;28;4159;-69
2023/05/28 01:39:36;;;;;;;;;;;;;;;21.68;50.46;101707.13;4990878;28;4244;-69
2023/05/28 01:42:05;;;;;;;;;;;;;;;21.67;50.26;101711.41;4994076;28;4080;-68
2023/05/28 01:44:31;;;;;;;;;;;;;;;21.65;50.49;101708.41;5004861;28;4285;-68
2023/05/28 01:46:58;;;;;;;;;;;;;;;21.64;50.59;101701.13;5020133;28;4424;-69
2023/05/28 01:49:24;;;;;;;;;;;;;;;21.65;50.32;101702.66;4996711;28;4151;-69
2023/05/28 01:51:51;;;;;;;;;;;;;;;21.64;50.45;101700.38;4999533;28;4117;-69
2023/05/28 01:54:18;;;;;;;;;;;;;;;21.64;50.34;101695.38;5003666;28;4029;-69
2023/05/28 01:56:44;;;;;;;;;;;;;;;21.64;50.58;101695.38;5009088;28;4063;-70
2023/05/28 01:59:10;;;;;;;;;;;;;;;21.64;50.19;101700.38;5007880;28;3922;-69
2023/05/28 02:01:37;;;;;;;;;;;;;;;21.63;50.59;101699.66;5001252;28;4209;-69
2023/05/28 02:04:07;;;;;;;;;;;;;;;21.62;50.55;101692.38;5008131;28;4126;-69
2023/05/28 02:06:35;;;;;;;;;;;;;;;21.63;50.48;101693.88;5011914;28;4228;-69
2023/05/28 02:09:02;;;;;;;;;;;;;;;21.62;50.28;101692.38;5002415;28;4456;-69
2023/05/28 02:11:29;;;;;;;;;;;;;;;21.60;50.37;101689.41;5002808;28;4153;-68
2023/05/28 02:13:56;;;;;;;;;;;;;;;21.61;50.46;101690.16;5000712;28;4104;-68
2023/05/28 02:16:23;;;;;;;;;;;;;;;21.60;50.22;101689.41;5014926;28;4176;-69
2023/05/28 02:18:53;;;;;;;;;;;;;;;21.60;50.46;101688.63;5008311;28;4195;-69
2023/05/28 02:21:21;;;;;;;;;;;;;;;21.60;50.20;101692.28;5013412;28;4316;-68
2023/05/28 02:23:48;;;;;;;;;;;;;;;21.60;50.32;101700.16;5005146;28;4187;-68
2023/05/28 02:26:16;;;;;;;;;;;;;;;21.59;50.23;101699.41;5013065;28;4128;-68
2023/05/28 02:28:43;;;;;;;;;;;;;;;21.59;50.20;101693.66;5009906;28;4663;-69
2023/05/28 02:31:10;;;;;;;;;;;;;;;21.58;50.27;101686.41;5001519;28;3977;-69
2023/05/28 02:33:37;;;;;;;;;;;;;;;21.58;50.18;101686.41;5004732;28;4274;-69
2023/05/28 02:36:03;;;;;;;;;;;;;;;21.58;50.14;101692.19;5003249;28;4131;-69
2023/05/28 02:38:29;;;;;;;;;;;;;;;21.58;50.15;101694.28;4998498;28;4324;-69
2023/05/28 02:40:56;;;;;;;;;;;;;;;21.57;50.33;101699.31;5006314;28;4287;-69
2023/05/28 02:43:22;;;;;;;;;;;;;;;21.57;50.38;101701.44;5003214;28;4233;-69
2023/05/28 02:45:49;;;;;;;;;;;;;;;21.57;50.10;101695.69;4998877;28;4210;-69
2023/05/28 02:48:16;;;;;;;;;;;;;;;21.56;50.38;101700.72;5005381;28;4006;-69
2023/05/28 02:50:42;;;;;;;;;;;;;;;21.55;50.09;101693.44;5003730;28;4315;-69
2023/05/28 02:53:33;;;;;;;;;;;;;;;21.54;50.17;101694.81;5002654;28;4144;-69
2023/05/28 02:55:59;;;;;;;;;;;;;;;21.54;50.29;101692.69;4995885;28;4033;-69
2023/05/28 02:58:28;;;;;;;;;;;;;;;21.55;50.26;101699.19;5014108;28;4342;-69
2023/05/28 03:00:55;;;;;;;;;;;;;;;21.53;50.38;101694.09;5000348;28;4176;-69
2023/05/28 03:03:22;;;;;;;;;;;;;;;21.54;50.34;101694.81;5006006;28;4036;-70
2023/05/28 03:05:48;;;;;;;;;;;;;;;21.52;50.27;101688.94;5001775;28;4314;-69
2023/05/28 03:08:15;;;;;;;;;;;;;;;21.52;50.36;101692.56;5003677;28;4148;-69
2023/05/28 03:10:41;;;;;;;;;;;;;;;21.52;50.32;101694.72;5002444;28;4568;-70
2023/05/28 03:13:08;;;;;;;;;;;;;;;21.52;50.08;101694.72;5004603;28;4177;-68
2023/05/28 03:15:35;;;;;;;;;;;;;;;21.51;50.09;101696.84;5001818;28;4133;-69
2023/05/28 03:18:01;;;;;;;;;;;;;;;21.51;50.18;101693.22;5003039;28;4050;-69
2023/05/28 03:20:31;;;;;;;;;;;;;;;21.50;49.98;101686.69;5010952;28;4150;-69
2023/05/28 03:22:57;;;;;;;;;;;;;;;21.50;50.13;101688.84;5007780;28;3997;-68
2023/05/28 03:25:29;;;;;;;;;;;;;;;21.50;50.26;101685.94;5006197;28;4764;-69
2023/05/28 03:27:55;;;;;;;;;;;;;;;21.50;50.09;101680.19;5009479;28;4364;-69
2023/05/28 03:30:31;;;;;;;;;;;;;;;21.49;50.13;101684.47;5001588;28;4205;-69
2023/05/28 03:32:57;;;;;;;;;;;;;;;21.50;50.13;101685.94;5002692;28;4155;-69
2023/05/28 03:35:24;;;;;;;;;;;;;;;21.48;50.23;101689.47;5003963;28;4063;-69
2023/05/28 03:37:51;;;;;;;;;;;;;;;21.47;50.09;101682.22;4999811;28;4007;-69
2023/05/28 03:40:20;;;;;;;;;;;;;;;21.47;50.16;101682.22;5008163;28;4084;-69
2023/05/28 03:42:48;;;;;;;;;;;;;;;21.48;50.29;101677.19;5009273;28;3917;-69
2023/05/28 03:45:15;;;;;;;;;;;;;;;21.48;50.17;101677.19;5010593;28;4525;-69
2023/05/28 03:47:41;;;;;;;;;;;;;;;21.46;50.10;101674.97;5004467;28;4335;-69
2023/05/28 03:50:08;;;;;;;;;;;;;;;21.46;50.12;101671.31;5017742;28;4235;-69
2023/05/28 03:52:34;;;;;;;;;;;;;;;21.46;50.13;101679.97;5003143;28;4032;-69
2023/05/28 03:55:01;;;;;;;;;;;;;;;21.46;50.07;101674.19;5000351;28;4251;-69
2023/05/28 03:57:27;;;;;;;;;;;;;;;21.45;50.18;101687.13;4994990;28;4246;-69
2023/05/28 03:59:56;;;;;;;;;;;;;;;21.46;50.37;101682.84;4996101;28;4206;-68
2023/05/28 04:02:23;;;;;;;;;;;;;;;21.44;50.29;101679.84;5001813;28;4270;-69
2023/05/28 04:04:51;;;;;;;;;;;;;;;21.44;50.07;101682.72;5002397;28;4027;-68
2023/05/28 04:07:17;;;;;;;;;;;;;;;21.43;50.11;101682.00;4999782;28;4104;-68
2023/05/28 04:09:44;;;;;;;;;;;;;;;21.43;50.35;101687.75;4999701;28;4217;-68
2023/05/28 04:12:12;;;;;;;;;;;;;;;21.43;50.30;101681.25;5006958;28;4209;-69
2023/05/28 04:14:40;;;;;;;;;;;;;;;21.43;50.18;101681.25;5006236;28;4083;-68
2023/05/28 04:17:07;;;;;;;;;;;;;;;21.42;50.31;101679.75;4999947;28;4111;-69
2023/05/28 04:19:33;;;;;;;;;;;;;;;21.41;50.44;101678.25;5003866;28;4214;-69
2023/05/28 04:22:00;;;;;;;;;;;;;;;21.41;50.25;101690.53;5014202;28;4060;-69
2023/05/28 04:24:26;;;;;;;;;;;;;;;21.42;50.09;101691.28;5009579;28;4113;-69
2023/05/28 04:26:53;;;;;;;;;;;;;;;21.40;50.45;101680.38;5007077;28;4111;-69
2023/05/28 04:29:23;;;;;;;;;;;;;;;21.41;50.38;101689.78;5003471;28;4052;-69
2023/05/28 04:31:50;;;;;;;;;;;;;;;21.40;50.23;101682.50;5001919;28;4152;-69
2023/05/28 04:34:17;;;;;;;;;;;;;;;21.39;50.34;101686.75;5005797;28;4454;-69
2023/05/28 04:36:43;;;;;;;;;;;;;;;21.39;50.35;101681.00;5016509;28;4315;-69
2023/05/28 04:39:10;;;;;;;;;;;;;;;21.38;50.50;101679.50;5004038;28;4225;-69
2023/05/28 04:41:36;;;;;;;;;;;;;;;21.39;50.52;101681.00;5005448;28;4044;-69
2023/05/28 04:44:03;;;;;;;;;;;;;;;21.39;50.25;101681.00;4997055;28;4141;-69
2023/05/28 04:46:30;;;;;;;;;;;;;;;21.39;50.36;101689.63;5001544;28;4069;-69
2023/05/28 04:48:57;;;;;;;;;;;;;;;21.38;50.36;101691.03;5007268;28;4077;-69
2023/05/28 04:51:25;;;;;;;;;;;;;;;21.37;50.58;101683.75;4995738;28;4201;-69
2023/05/28 04:53:52;;;;;;;;;;;;;;;21.38;50.37;101686.00;5000905;28;4081;-69
2023/05/28 04:56:19;;;;;;;;;;;;;;;21.38;50.74;101691.03;4995809;28;4169;-69
2023/05/28 04:58:46;;;;;;;;;;;;;;;21.36;50.41;101680.13;4998948;28;4197;-69
2023/05/28 05:01:14;;;;;;;;;;;;;;;21.37;50.40;101689.53;4996684;28;4028;-69
2023/05/28 05:03:41;;;;;;;;;;;;;;;21.37;50.40;101690.25;5003459;28;4320;-69
2023/05/28 05:06:08;;;;;;;;;;;;;;;21.37;50.60;101689.53;5000653;28;4932;-69
2023/05/28 05:08:35;;;;;;;;;;;;;;;21.37;50.70;101687.38;5016814;28;4175;-69
2023/05/28 05:11:01;;;;;;;;;;;;;;;21.37;50.65;101689.53;4999657;28;4041;-68
2023/05/28 05:13:28;;;;;;;;;;;;;;;21.37;50.47;101683.75;5002697;28;4240;-69
2023/05/28 05:15:55;;;;;;;;;;;;;;;21.38;50.48;101679.50;5000662;28;4170;-69
2023/05/28 05:18:21;;;;;;;;;;;;;;;21.36;50.73;101676.50;5001830;28;4018;-69
2023/05/28 05:20:48;;;;;;;;;;;;;;;21.37;50.62;101675.09;5000785;28;4137;-69
2023/05/28 05:23:15;;;;;;;;;;;;;;;21.37;50.83;101666.47;4999206;28;4196;-69
2023/05/28 05:25:46;;;;;;;;;;;;;;;21.36;50.87;101671.50;5009610;28;4191;-69
2023/05/28 05:28:12;;;;;;;;;;;;;;;21.37;50.63;101667.22;5010008;28;3953;-69
2023/05/28 05:30:39;;;;;;;;;;;;;;;21.37;50.56;101675.09;5004583;28;4056;-69
2023/05/28 05:33:05;;;;;;;;;;;;;;;21.37;50.65;101675.09;5003606;28;4192;-68
2023/05/28 05:35:45;;;;;;;;;;;;;;;21.38;50.64;101667.97;5000265;28;4069;-69
2023/05/28 05:38:30;;;;;;;;;;;;;;;21.36;50.78;101667.88;5010326;28;4048;-68
2023/05/28 05:41:26;;;;;;;;;;;;;;;21.37;50.58;101666.47;5010693;28;4147;-70
2023/05/28 05:44:05;;;;;;;;;;;;;;;21.36;50.77;101671.50;5005062;28;3986;-69
2023/05/28 05:46:32;;;;;;;;;;;;;;;21.34;50.76;101669.22;5005950;28;4063;-69
2023/05/28 05:48:58;;;;;;;;;;;;;;;21.36;50.57;101677.25;5002322;28;4030;-69
2023/05/28 05:51:25;;;;;;;;;;;;;;;21.36;50.90;101677.25;5009242;28;4216;-69
2023/05/28 05:53:52;;;;;;;;;;;;;;;21.34;50.74;101677.88;5001135;28;4124;-70
2023/05/28 05:56:18;;;;;;;;;;;;;;;21.36;50.93;101676.50;5000122;28;5054;-69
2023/05/28 05:58:46;;;;;;;;;;;;;;;21.36;50.97;101679.38;5005685;28;4020;-70
2023/05/28 06:01:16;;;;;;;;;;;;;;;21.36;50.79;101673.63;5008684;28;4328;-70
2023/05/28 06:03:43;;;;;;;;;;;;;;;21.36;50.95;101685.16;5009490;28;4122;-71
2023/05/28 06:06:45;;;;;;;;;;;;;;;21.33;50.91;101682.16;5006815;28;4147;-70
2023/05/28 06:09:32;;;;;;;;;;;;;;;21.36;50.76;101676.50;4998569;28;4330;-71
2023/05/28 06:12:06;;;;;;;;;;;;;;;21.39;50.27;101681.72;5009580;28;4003;-72
2023/05/28 06:14:32;;;;;;;;;;;;;;;21.33;50.10;101679.28;5012567;28;4111;-68
2023/05/28 06:16:59;;;;;;;;;;;;;;;21.38;50.57;101679.50;5004939;28;4118;-67
2023/05/28 06:19:25;;;;;;;;;;;;;;;21.44;50.04;101676.97;5011709;28;4203;-67
2023/05/28 06:21:54;;;;;;;;;;;;;;;21.43;50.30;101676.22;5008273;28;4131;-68
2023/05/28 06:24:21;;;;;;;;;;;;;;;21.43;50.33;101681.25;5009727;28;4161;-67
2023/05/28 06:26:48;;;;;;;;;;;;;;;21.42;50.38;101679.75;5014323;28;4116;-67
2023/05/28 06:29:14;;;;;;;;;;;;;;;21.42;50.41;101674.00;5012815;28;4737;-67
2023/05/28 06:31:41;;;;;;;;;;;;;;;21.42;50.25;101674.00;5009658;28;4509;-67
2023/05/28 06:34:08;;;;;;;;;;;;;;;21.42;49.97;101668.22;5002654;28;3953;-67
2023/05/28 06:36:35;;;;;;;;;;;;;;;21.41;49.61;101678.25;5007397;28;4268;-67
2023/05/28 06:39:05;;;;;;;;;;;;;;;21.41;50.41;101679.00;5009531;28;4332;-67
2023/05/28 06:41:32;;;;;;;;;;;;;;;21.43;50.10;101669.72;5005295;28;4101;-67
2023/05/28 06:43:59;;;;;;;;;;;;;;;21.42;49.87;101668.22;5001021;28;4168;-67
2023/05/28 06:46:35;;;;;;;;;;;;;;;21.41;49.91;101672.50;5010165;28;4417;-67
2023/05/28 06:49:02;;;;;;;;;;;;;;;21.40;49.87;101671.75;4987549;28;4144;-67
2023/05/28 06:51:30;;;;;;;;;;;;;;;21.42;49.55;101674.75;5018229;28;4319;-67
2023/05/28 06:53:56;;;;;;;;;;;;;;;21.42;49.74;101674.00;5010317;28;4030;-67
2023/05/28 06:56:26;;;;;;;;;;;;;;;21.42;49.58;101682.66;5000660;28;4752;-67
2023/05/28 06:59:31;;;;;;;;;;;;;;;21.41;50.11;101681.13;5009444;28;4389;-67
2023/05/28 07:02:08;;;;;;;;;;;;;;;21.25;47.75;101670.16;5002667;28;4134;-67
2023/05/28 07:04:54;;;;;;;;;;;;;;;20.98;46.33;101667.19;5009458;28;4208;-69
2023/05/28 07:07:25;;;;;;;;;;;;;;;20.81;46.10;101677.03;5002438;28;4317;-69
2023/05/28 07:09:51;;;;;;;;;;;;;;;20.89;45.87;101681.16;4994088;28;5338;-69
2023/05/28 07:12:18;;;;;;;;;;;;;;;20.88;45.02;101679.63;5000994;28;4575;-68
2023/05/28 07:14:49;;;;;;;;;;;;;;;20.95;44.77;101674.97;5018897;28;4138;-69
2023/05/28 07:17:16;;;;;;;;;;;;;;;20.95;44.20;101680.00;4995439;28;4028;-69
2023/05/28 07:19:43;;;;;;;;;;;;;;;20.86;43.81;101673.75;5009350;28;3948;-68
2023/05/28 07:22:10;;;;;;;;;;;;;;;20.80;42.06;101678.41;5009635;28;4090;-69
2023/05/28 07:24:38;;;;;;;;;;;;;;;20.61;40.64;101676.59;5012413;28;4260;-68
2023/05/28 07:27:06;;;;;;;;;;;;;;;20.51;40.42;101679.63;5013879;28;4019;-68
2023/05/28 07:29:33;;;;;;;;;;;;;;;20.76;40.43;101683.94;5012089;28;4243;-68
2023/05/28 07:32:00;;;;;;;;;;;;;;;20.81;39.75;101683.53;5009096;28;4210;-68
2023/05/28 07:34:29;;;;;;;;;;;;;;;20.67;38.79;101680.59;5011531;28;4036;-68
2023/05/28 07:36:56;;;;;;;;;;;;;;;20.74;39.00;101675.19;4997280;28;4190;-68
2023/05/28 07:39:23;;;;;;;;;;;;;;;20.83;38.41;101675.03;5003205;28;4090;-68
2023/05/28 07:41:50;;;;;;;;;;;;;;;20.81;38.76;101677.78;5015293;28;4155;-68
2023/05/28 07:44:24;;;;;;;;;;;;;;;20.83;38.70;101683.66;5011318;28;4166;-68
2023/05/28 07:46:51;;;;;;;;;;;;;;;20.87;38.10;101674.53;5016219;28;4016;-67
2023/05/28 07:49:43;;;;;;;;;;;;;;;20.76;37.57;101673.19;5004199;28;4201;-68
2023/05/28 07:52:12;;;;;;;;;;;;;;;20.71;36.30;101662.81;5006282;28;4175;-68
2023/05/28 07:54:39;;;;;;;;;;;;;;;20.68;36.67;101664.06;5008786;28;4115;-68
2023/05/28 07:57:06;;;;;;;;;;;;;;;20.84;36.22;101673.63;5004583;28;4154;-68
2023/05/28 07:59:35;;;;;;;;;;;;;;;20.80;37.00;101670.53;5005264;28;4115;-68
2023/05/28 08:02:03;;;;;;;;;;;;;;;20.75;36.68;101663.03;5008352;28;4194;-68
2023/05/28 08:04:29;;;;;;;;;;;;;;;20.75;36.95;101665.91;5011733;28;4041;-68
2023/05/28 08:06:56;;;;;;;;;;;;;;;20.79;37.29;101669.03;5010183;28;4198;-68
2023/05/28 08:09:24;;;;;;;;;;;;;;;20.84;37.03;101670.75;5010395;28;4051;-68
2023/05/28 08:11:53;;;;;;;;;;;;;;;20.80;36.78;101670.53;5002705;28;4130;-68
2023/05/28 08:14:22;;;;;;;;;;;;;;;20.76;35.51;101653.03;5014031;28;4267;-68
2023/05/28 08:16:51;;;;;;;;;;;;;;;20.71;35.21;101662.81;5012661;28;4196;-68
2023/05/28 08:19:43;;;;;;;;;;;;;;;20.63;34.71;101659.47;4999795;28;4118;-68
2023/05/28 08:22:40;;;;;;;;;;;;;;;20.70;35.10;101656.31;5009530;28;4130;-68
2023/05/28 08:25:08;;;;;;;;;;;;;;;20.56;35.40;101652.59;5009695;28;4219;-68
2023/05/28 08:27:35;;;;;;;;;;;;;;;20.58;35.25;101646.97;5007865;28;4073;-68
2023/05/28 08:30:02;;;;;;;;;;;;;;;20.70;36.09;101655.56;5011066;28;4110;-66
2023/05/28 08:32:30;;;;;;;;;;;;;;;20.91;36.44;101655.34;5001028;28;4126;-66
2023/05/28 08:34:56;;;;;;;;;;;;;;;20.98;37.20;101649.91;5017372;28;4496;-67
2023/05/28 08:37:24;;;;;;;;;;;;;;;21.03;36.89;101645.91;5003145;28;3966;-66
2023/05/28 08:40:01;;;;;;;;;;;;;;;20.96;37.71;101646.91;5003554;28;4219;-67
2023/05/28 08:42:28;;;;;;;;;;;;;;;21.01;37.82;101645.78;5012813;28;4214;-66
2023/05/28 08:44:54;;;;;;;;;;;;;;;21.02;38.09;101644.41;5009869;28;3970;-67
2023/05/28 08:47:23;;;;;;;;;;;;;;;21.05;38.79;101637.34;5004780;28;4215;-66
2023/05/28 08:49:59;;;;;;;;;;;;;;;21.07;39.36;101641.13;4999357;28;4238;-67
2023/05/28 08:52:32;;;;;;;;;;;;;;;21.11;39.38;101640.59;5001785;28;5339;-66
2023/05/28 08:55:00;;;;;;;;;;;;;;;21.13;39.46;101643.59;5016711;28;4074;-67
2023/05/28 08:57:30;;;;;;;;;;;;;;;21.12;39.58;101636.34;5023236;28;4102;-66
2023/05/28 09:00:00;;;;;;;;;;;;;;;21.17;39.71;101638.06;5012308;28;4129;-66
2023/05/28 09:02:27;;;;;;;;;;;;;;;21.18;39.90;101628.00;5002385;28;4174;-66
2023/05/28 09:04:56;;;;;;;;;;;;;;;21.17;40.48;101623.66;5011280;28;4030;-67
2023/05/28 09:07:22;;;;;;;;;;;;;;;21.19;40.43;101623.75;5002195;28;4232;-67
2023/05/28 09:09:52;;;;;;;;;;;;;;;21.20;40.73;101628.13;4992997;28;4201;-66
2023/05/28 09:12:20;;;;;;;;;;;;;;;21.22;41.06;101618.84;5000773;28;4146;-66
2023/05/28 09:14:49;;;;;;;;;;;;;;;21.23;41.17;101611.69;5001128;28;4868;-67
2023/05/28 09:17:16;;;;;;;;;;;;;;;21.24;41.42;101619.72;5011033;28;4026;-66
2023/05/28 09:19:49;;;;;;;;;;;;;;;21.18;41.77;101622.25;5010839;28;4232;-68
2023/05/28 09:22:16;;;;;;;;;;;;;;;21.20;41.41;101616.59;5013939;28;4353;-66
2023/05/28 09:24:53;;;;;;;;;;;;;;;21.16;41.81;101618.50;5001235;28;4274;-67
2023/05/28 09:27:35;;;;;;;;;;;;;;;21.21;42.10;101615.25;5010047;28;4255;-66
2023/05/28 09:30:07;;;;;;;;;;;;;;;21.23;41.97;101611.69;5026823;28;5354;-66
2023/05/28 09:32:36;;;;;;;;;;;;;;;21.28;42.02;101607.66;5009281;28;4245;-66
2023/05/28 09:35:06;;;;;;;;;;;;;;;21.29;42.03;101600.53;5007076;28;4301;-66
2023/05/28 09:37:36;;;;;;;;;;;;;;;21.32;41.85;101602.13;5004771;28;4690;-66
2023/05/28 09:40:09;;;;;;;;;;;;;;;21.30;41.86;101605.66;5009656;28;4228;-67
2023/05/28 09:42:38;;;;;;;;;;;;;;;21.30;42.14;101594.13;5006871;28;4529;-66
2023/05/28 09:45:05;;;;;;;;;;;;;;;21.30;42.28;101599.88;5007098;28;4179;-67
2023/05/28 09:47:31;;;;;;;;;;;;;;;21.31;42.48;101589.84;5009998;28;4171;-66
2023/05/28 09:49:57;;;;;;;;;;;;;;;21.32;42.47;101596.34;5011537;28;4185;-67
2023/05/28 09:52:24;;;;;;;;;;;;;;;21.36;42.32;101590.06;5003165;28;3953;-66
2023/05/28 09:54:58;;;;;;;;;;;;;;;21.34;42.78;101588.56;5007751;28;4040;-67
2023/05/28 09:57:25;;;;;;;;;;;;;;;21.34;42.78;101588.56;5005051;28;4221;-67
2023/05/28 09:59:53;;;;;;;;;;;;;;;21.36;42.71;101584.31;5003595;28;4197;-66
2023/05/28 10:02:25;;;;;;;;;;;;;;;21.38;42.68;101581.53;5009203;28;4016;-66
2023/05/28 10:04:55;;;;;;;;;;;;;;;21.38;42.50;101578.66;5010438;28;4214;-66
2023/05/28 10:07:21;;;;;;;;;;;;;;;21.39;42.51;101580.88;5005167;28;4131;-66
2023/05/28 10:09:47;;;;;;;;;;;;;;;21.40;42.45;101573.00;5004896;28;4031;-66
2023/05/28 10:12:18;;;;;;;;;;;;;;;21.41;42.71;101571.66;5008560;28;4122;-66
2023/05/28 10:14:44;;;;;;;;;;;;;;;21.42;42.52;101578.91;5015262;28;4177;-66
2023/05/28 10:17:11;;;;;;;;;;;;;;;21.43;42.84;101577.53;5005286;28;4281;-66
2023/05/28 10:19:38;;;;;;;;;;;;;;;21.41;42.76;101571.66;5006616;28;4056;-66
2023/05/28 10:22:04;;;;;;;;;;;;;;;21.45;42.67;101574.75;5003711;28;4094;-66
2023/05/28 10:24:31;;;;;;;;;;;;;;;21.46;42.58;101582.00;5009370;28;4103;-66
2023/05/28 10:26:57;;;;;;;;;;;;;;;21.45;42.82;101584.13;5014183;28;4142;-67
2023/05/28 10:29:24;;;;;;;;;;;;;;;21.45;43.18;101575.50;5007809;28;4358;-66
2023/05/28 10:32:00;;;;;;;;;;;;;;;21.45;43.49;101568.97;5008022;28;4105;-66
2023/05/28 10:34:31;;;;;;;;;;;;;;;21.48;43.61;101579.22;4998530;28;4160;-65
2023/05/28 10:37:04;;;;;;;;;;;;;;;21.44;43.89;101574.00;5005115;28;4184;-66
2023/05/28 10:39:40;;;;;;;;;;;;;;;21.49;43.90;101574.97;5002869;28;4215;-66
2023/05/28 10:42:07;;;;;;;;;;;;;;;21.48;43.97;101565.56;5010244;28;4138;-65
2023/05/28 10:44:48;;;;;;;;;;;;;;;21.50;43.74;101570.69;5004548;28;3970;-66
2023/05/28 10:47:16;;;;;;;;;;;;;;;21.47;44.02;101577.75;5006049;28;4056;-66
2023/05/28 10:50:09;;;;;;;;;;;;;;;21.50;43.79;101567.81;5010526;28;4146;-66
2023/05/28 10:52:39;;;;;;;;;;;;;;;21.50;43.83;101565.66;5008636;28;4490;-65
2023/05/28 10:55:06;;;;;;;;;;;;;;;21.48;43.81;101564.81;4999337;28;4622;-66
2023/05/28 10:57:40;;;;;;;;;;;;;;;21.48;43.60;101565.56;5007423;28;4206;-66
2023/05/28 11:00:10;;;;;;;;;;;;;;;21.49;43.42;101557.69;4989704;28;4104;-65
2023/05/28 11:02:37;;;;;;;;;;;;;;;21.50;43.19;101559.16;5006278;28;4145;-65
2023/05/28 11:05:04;;;;;;;;;;;;;;;21.50;43.05;101567.81;4993460;28;4087;-65
2023/05/28 11:07:41;;;;;;;;;;;;;;;21.52;43.00;101562.16;5002761;28;4127;-65
2023/05/28 11:10:08;;;;;;;;;;;;;;;21.48;42.55;101567.69;4985673;28;4198;-65
2023/05/28 11:12:36;;;;;;;;;;;;;;;21.51;41.90;101567.19;5006589;28;4012;-65
2023/05/28 11:15:03;;;;;;;;;;;;;;;21.50;41.10;101571.44;5009365;28;4174;-66
2023/05/28 11:17:29;;;;;;;;;;;;;;;21.53;41.15;101564.41;5008773;28;4029;-66
2023/05/28 11:19:56;;;;;;;;;;;;;;;21.52;41.39;101568.66;5003174;28;4004;-66
2023/05/28 11:22:22;;;;;;;;;;;;;;;21.52;41.80;101562.88;4997816;28;4168;-66
2023/05/28 11:24:58;;;;;;;;;;;;;;;21.54;42.05;101565.16;5011688;28;4240;-65
2023/05/28 11:27:25;;;;;;;;;;;;;;;21.54;41.51;101562.25;5007997;28;4122;-64
2023/05/28 11:29:52;;;;;;;;;;;;;;;21.56;41.83;101545.09;5004682;28;4039;-65
2023/05/28 11:32:20;;;;;;;;;;;;;;;21.59;42.33;101554.56;5009146;28;4091;-65
2023/05/28 11:34:50;;;;;;;;;;;;;;;21.60;42.68;101559.72;5003417;28;4093;-65
2023/05/28 11:37:16;;;;;;;;;;;;;;;21.58;43.00;101558.84;4999579;28;4077;-65
2023/05/28 11:39:49;;;;;;;;;;;;;;;21.59;43.21;101552.44;5007710;28;4049;-65
2023/05/28 11:42:16;;;;;;;;;;;;;;;21.57;43.22;101540.81;5002160;28;4516;-65
2023/05/28 11:44:43;;;;;;;;;;;;;;;21.59;43.25;101538.03;5003471;28;4370;-65
2023/05/28 11:47:09;;;;;;;;;;;;;;;21.59;43.33;101540.91;5007909;28;4307;-65
2023/05/28 11:49:36;;;;;;;;;;;;;;;21.59;43.66;101537.28;5009375;28;4138;-65
2023/05/28 11:52:02;;;;;;;;;;;;;;;21.61;43.58;101540.28;5010273;28;4152;-66
2023/05/28 11:54:29;;;;;;;;;;;;;;;21.62;43.81;101530.97;5000775;28;4219;-65
2023/05/28 11:56:55;;;;;;;;;;;;;;;21.63;43.90;101526.72;5004122;28;4059;-65
2023/05/28 11:59:28;;;;;;;;;;;;;;;21.64;43.78;101528.19;4998636;28;4171;-75
2023/05/28 12:02:08;;;;;;;;;;;;;;;21.65;44.26;101523.19;5011870;28;4054;-75
2023/05/28 12:04:34;;;;;;;;;;;;;;;21.65;44.12;101526.09;5007458;28;3972;-76
2023/05/28 12:07:01;;;;;;;;;;;;;;;21.66;44.10;101525.41;5001878;28;4026;-74
2023/05/28 12:09:28;;;;;;;;;;;;;;;21.67;44.16;101524.03;5007507;28;3966;-74
2023/05/28 12:12:10;;;;;;;;;;;;;;;21.67;44.36;101515.41;5006813;28;4050;-76
2023/05/28 12:14:36;;;;;;;;;;;;;;;21.67;44.27;101518.28;5008498;28;4099;-76
2023/05/28 12:17:06;;;;;;;;;;;;;;;21.69;44.39;101518.38;5002893;28;4185;-75
2023/05/28 12:19:33;;;;;;;;;;;;;;;21.69;44.64;101512.63;5008615;28;3979;-77
2023/05/28 12:22:00;;;;;;;;;;;;;;;21.70;44.45;101502.56;5000217;28;4057;-77
2023/05/28 12:24:27;;;;;;;;;;;;;;;21.72;44.84;101493.28;5011282;28;3979;-77
2023/05/28 12:26:53;;;;;;;;;;;;;;;21.73;44.70;101501.28;5005658;28;4015;-77
2023/05/28 12:29:20;;;;;;;;;;;;;;;21.72;44.86;101488.25;5005163;28;4046;-75
2023/05/28 12:31:46;;;;;;;;;;;;;;;21.78;44.66;101489.97;5012799;28;4074;-75
2023/05/28 12:34:12;;;;;;;;;;;;;;;21.78;44.84;101492.84;5004533;28;4240;-76
2023/05/28 12:36:39;;;;;;;;;;;;;;;21.74;44.84;101491.25;4998137;28;4033;-75
2023/05/28 12:39:05;;;;;;;;;;;;;;;21.79;44.82;101495.09;5006539;28;4032;-76
2023/05/28 12:41:32;;;;;;;;;;;;;;;21.79;44.82;101497.22;5007960;28;4596;-76
2023/05/28 12:43:58;;;;;;;;;;;;;;;21.80;44.67;101492.94;5009599;28;4901;-76
2023/05/28 12:46:25;;;;;;;;;;;;;;;21.80;44.97;101499.44;5022345;28;4039;-76
2023/05/28 12:48:51;;;;;;;;;;;;;;;21.79;44.84;101492.22;5000562;28;4013;-76
2023/05/28 12:51:17;;;;;;;;;;;;;;;21.82;45.12;101490.16;5001836;28;4105;-75
2023/05/28 12:53:44;;;;;;;;;;;;;;;21.81;45.31;101488.69;5008968;28;3945;-77
2023/05/28 12:56:11;;;;;;;;;;;;;;;21.82;45.10;101493.06;5004155;28;4072;-76